createdAt,value
2018-02-16T00:01:02.839Z,21.57
2018-02-16T00:03:31.354Z,22.00
2018-02-16T00:05:59.865Z,21.60
2018-02-16T00:08:28.325Z,22.27
2018-02-16T00:10:56.845Z,22.83
2018-02-16T00:13:25.302Z,22.33
2018-02-16T00:15:53.773Z,21.70
2018-02-16T00:18:22.282Z,21.73
2018-02-16T00:20:50.791Z,22.20
2018-02-16T00:23:19.293Z,22.57
2018-02-16T00:25:47.758Z,21.97
2018-02-16T00:28:16.267Z,22.93
2018-02-16T00:30:44.743Z,20.83
2018-02-16T00:33:13.256Z,21.20
2018-02-16T00:35:41.757Z,20.80
2018-02-16T00:38:10.260Z,19.53
2018-02-16T00:40:38.758Z,20.50
2018-02-16T00:43:07.239Z,19.57
2018-02-16T00:45:35.722Z,19.67
2018-02-16T00:48:04.210Z,19.63
2018-02-16T00:50:32.709Z,19.40
2018-02-16T00:53:01.186Z,19.93
2018-02-16T00:55:30.321Z,21.10
2018-02-16T00:57:58.838Z,20.20
2018-02-16T01:00:27.319Z,20.47
2018-02-16T01:02:55.781Z,18.63
2018-02-16T01:05:24.290Z,20.20
2018-02-16T01:07:52.797Z,19.13
2018-02-16T01:10:21.317Z,19.07
2018-02-16T01:12:49.785Z,18.60
2018-02-16T01:15:18.270Z,20.27
2018-02-16T01:17:46.768Z,19.00
2018-02-16T01:20:15.283Z,19.77
2018-02-16T01:22:43.793Z,21.00
2018-02-16T01:25:12.314Z,20.10
2018-02-16T01:27:40.793Z,19.93
2018-02-16T01:30:09.248Z,20.03
2018-02-16T01:32:37.745Z,19.33
2018-02-16T01:35:06.213Z,19.03
2018-02-16T01:37:34.722Z,18.20
2018-02-16T01:40:03.283Z,17.80
2018-02-16T01:42:31.822Z,18.30
2018-02-16T01:45:00.339Z,17.57
2018-02-16T01:47:28.869Z,17.93
2018-02-16T01:50:06.085Z,17.37
2018-02-16T01:52:34.590Z,17.90
2018-02-16T01:55:03.063Z,18.17
2018-02-16T01:57:31.570Z,18.03
2018-02-16T02:00:00.110Z,16.90
2018-02-16T02:02:28.619Z,17.70
2018-02-16T02:04:57.119Z,16.33
2018-02-16T02:07:25.632Z,17.30
2018-02-16T02:09:54.098Z,17.83
2018-02-16T02:12:22.616Z,18.33
2018-02-16T02:14:51.122Z,18.17
2018-02-16T02:17:19.625Z,18.90
2018-02-16T02:19:48.138Z,17.97
2018-02-16T02:22:16.610Z,18.07
2018-02-16T02:24:45.106Z,18.23
2018-02-16T02:27:13.613Z,18.17
2018-02-16T02:29:42.058Z,18.70
2018-02-16T02:32:10.606Z,19.00
2018-02-16T02:34:39.088Z,18.07
2018-02-16T02:37:07.567Z,18.60
2018-02-16T02:39:36.086Z,19.33
2018-02-16T02:42:04.563Z,18.10
2018-02-16T02:44:33.101Z,18.53
2018-02-16T02:47:01.606Z,18.97
2018-02-16T02:49:30.075Z,17.77
2018-02-16T02:51:58.578Z,17.23
2018-02-16T02:54:27.041Z,17.87
2018-02-16T02:56:55.553Z,17.27
2018-02-16T02:59:24.014Z,17.67
2018-02-16T03:01:52.525Z,18.13
2018-02-16T03:04:21.034Z,16.87
2018-02-16T03:06:49.501Z,16.37
2018-02-16T03:09:18.109Z,17.43
2018-02-16T03:11:46.623Z,17.30
2018-02-16T03:14:15.094Z,17.60
2018-02-16T03:16:43.606Z,18.00
2018-02-16T03:19:12.089Z,16.30
2018-02-16T03:21:40.561Z,16.87
2018-02-16T03:24:09.069Z,17.37
2018-02-16T03:26:37.556Z,16.70
2018-02-16T03:29:06.168Z,17.10
2018-02-16T03:31:34.646Z,16.97
2018-02-16T03:34:03.117Z,16.83
2018-02-16T03:36:31.623Z,16.97
2018-02-16T03:39:00.126Z,15.73
2018-02-16T03:41:28.630Z,16.30
2018-02-16T03:43:57.104Z,14.70
2018-02-16T03:46:25.605Z,15.97
2018-02-16T03:48:54.075Z,15.07
2018-02-16T03:51:22.573Z,15.13
2018-02-16T03:53:51.069Z,16.43
2018-02-16T03:56:19.582Z,15.47
2018-02-16T03:58:48.050Z,15.13
2018-02-16T04:01:16.541Z,15.73
2018-02-16T04:03:45.129Z,16.40
2018-02-16T04:06:13.612Z,15.27
2018-02-16T04:08:42.113Z,16.70
2018-02-16T04:11:10.613Z,16.00
2018-02-16T04:13:39.073Z,17.07
2018-02-16T04:16:07.581Z,17.77
2018-02-16T04:18:36.050Z,16.83
2018-02-16T04:21:04.517Z,17.10
2018-02-16T04:23:33.054Z,17.13
2018-02-16T04:26:01.515Z,17.93
2018-02-16T04:28:30.018Z,17.27
2018-02-16T04:30:58.536Z,17.07
2018-02-16T04:33:27.011Z,16.90
2018-02-16T04:35:55.521Z,16.53
2018-02-16T04:38:23.993Z,16.73
2018-02-16T04:40:52.469Z,16.97
2018-02-16T04:43:20.973Z,17.03
2018-02-16T04:45:49.414Z,17.40
2018-02-16T04:48:17.873Z,16.97
2018-02-16T04:50:46.364Z,16.27
2018-02-16T04:53:14.849Z,17.00
2018-02-16T04:55:43.357Z,18.80
2018-02-16T04:58:11.861Z,17.77
2018-02-16T05:00:40.333Z,19.20
2018-02-16T05:03:08.800Z,17.37
2018-02-16T05:05:37.303Z,16.77
2018-02-16T05:08:05.786Z,17.50
2018-02-16T05:10:34.282Z,16.97
2018-02-16T05:13:02.789Z,17.53
2018-02-16T05:15:31.894Z,17.73
2018-02-16T05:18:00.355Z,15.97
2018-02-16T05:20:28.864Z,16.60
2018-02-16T05:22:57.360Z,16.37
2018-02-16T05:25:25.862Z,17.80
2018-02-16T05:27:54.373Z,17.60
2018-02-16T05:30:22.879Z,16.87
2018-02-16T05:32:51.356Z,17.50
2018-02-16T05:35:19.858Z,18.17
2018-02-16T05:37:48.321Z,18.53
2018-02-16T05:40:16.822Z,17.53
2018-02-16T05:42:45.290Z,17.43
2018-02-16T05:45:13.804Z,17.70
2018-02-16T05:47:42.283Z,17.27
2018-02-16T05:50:10.773Z,17.83
2018-02-16T05:52:39.252Z,17.37
2018-02-16T05:55:07.775Z,18.07
2018-02-16T05:57:36.286Z,18.27
2018-02-16T06:00:04.770Z,17.80
2018-02-16T06:02:33.279Z,17.33
2018-02-16T06:05:01.741Z,17.93
2018-02-16T06:07:30.269Z,17.77
2018-02-16T06:09:58.790Z,19.13
2018-02-16T06:12:27.297Z,19.20
2018-02-16T06:14:55.760Z,19.43
2018-02-16T06:17:24.237Z,20.33
2018-02-16T06:19:52.741Z,18.20
2018-02-16T06:22:21.222Z,17.97
2018-02-16T06:24:49.753Z,19.00
2018-02-16T06:27:18.236Z,18.83
2018-02-16T06:29:46.743Z,19.23
2018-02-16T06:32:15.218Z,19.07
2018-02-16T06:34:43.734Z,19.53
2018-02-16T06:37:12.243Z,18.67
2018-02-16T06:39:40.769Z,19.40
2018-02-16T06:42:09.278Z,17.63
2018-02-16T06:44:37.787Z,18.83
2018-02-16T06:47:06.246Z,19.37
2018-02-16T06:49:34.763Z,19.03
2018-02-16T06:52:03.290Z,19.30
2018-02-16T06:54:31.769Z,18.40
2018-02-16T06:57:00.284Z,18.63
2018-02-16T06:59:28.804Z,18.03
2018-02-16T07:01:57.310Z,17.27
2018-02-16T07:04:25.831Z,17.77
2018-02-16T07:06:54.303Z,17.07
2018-02-16T07:09:22.787Z,18.40
2018-02-16T07:11:51.281Z,17.00
2018-02-16T07:14:19.794Z,15.87
2018-02-16T07:16:48.295Z,18.57
2018-02-16T07:19:16.814Z,18.80
2018-02-16T07:21:45.287Z,17.33
2018-02-16T07:24:13.793Z,17.33
2018-02-16T07:26:42.270Z,18.93
2018-02-16T07:29:10.772Z,18.23
2018-02-16T07:31:39.278Z,17.93
2018-02-16T07:34:07.744Z,18.20
2018-02-16T07:36:36.238Z,17.47
2018-02-16T07:39:04.756Z,18.63
2018-02-16T07:41:33.315Z,19.50
2018-02-16T07:44:01.800Z,17.40
2018-02-16T07:46:30.305Z,19.77
2018-02-16T07:48:58.763Z,18.10
2018-02-16T07:51:27.266Z,18.63
2018-02-16T07:53:55.734Z,18.17
2018-02-16T07:56:24.234Z,19.47
2018-02-16T07:58:52.707Z,19.83
2018-02-16T08:01:21.217Z,20.30
2018-02-16T08:03:49.796Z,22.00
2018-02-16T08:06:18.313Z,19.20
2018-02-16T08:08:46.813Z,20.97
2018-02-16T08:11:15.317Z,18.90
2018-02-16T08:13:43.786Z,17.43
2018-02-16T08:16:12.286Z,19.13
2018-02-16T08:18:40.841Z,20.03
2018-02-16T08:21:09.314Z,20.97
2018-02-16T08:23:37.784Z,17.73
2018-02-16T08:26:06.290Z,17.40
2018-02-16T08:28:34.782Z,18.77
2018-02-16T08:31:03.271Z,17.50
2018-02-16T08:33:31.726Z,19.10
2018-02-16T08:36:00.237Z,18.40
2018-02-16T08:38:28.718Z,17.70
2018-02-16T08:40:57.197Z,17.53
2018-02-16T08:43:25.696Z,17.40
2018-02-16T08:45:54.172Z,16.13
2018-02-16T08:48:22.682Z,17.00
2018-02-16T08:50:51.157Z,17.90
2018-02-16T08:53:19.698Z,19.13
2018-02-16T08:55:48.665Z,18.63
2018-02-16T08:58:17.286Z,18.13
2018-02-16T09:00:45.780Z,18.57
2018-02-16T09:03:14.304Z,15.97
2018-02-16T09:05:42.798Z,17.40
2018-02-16T09:08:11.309Z,17.63
2018-02-16T09:10:39.781Z,16.23
2018-02-16T09:13:08.248Z,17.23
2018-02-16T09:15:36.813Z,18.60
2018-02-16T09:18:05.296Z,17.40
2018-02-16T09:20:33.814Z,18.63
2018-02-16T09:23:02.335Z,16.57
2018-02-16T09:25:30.840Z,15.60
2018-02-16T09:27:59.394Z,16.03
2018-02-16T09:30:27.873Z,14.83
2018-02-16T09:32:56.385Z,15.13
2018-02-16T09:35:24.861Z,15.10
2018-02-16T09:37:53.425Z,16.77
2018-02-16T09:40:22.541Z,16.27
2018-02-16T09:42:51.291Z,15.50
2018-02-16T09:45:19.780Z,17.37
2018-02-16T09:47:48.281Z,16.90
2018-02-16T09:50:16.829Z,17.17
2018-02-16T09:52:45.302Z,16.70
2018-02-16T09:55:13.814Z,15.73
2018-02-16T09:57:42.302Z,17.13
2018-02-16T10:00:10.769Z,17.80
2018-02-16T10:02:39.290Z,18.60
2018-02-16T10:05:07.759Z,19.13
2018-02-16T10:07:36.233Z,20.23
2018-02-16T10:10:04.746Z,19.60
2018-02-16T10:12:33.253Z,21.30
2018-02-16T10:15:01.732Z,21.60
2018-02-16T10:17:30.282Z,20.67
2018-02-16T10:19:58.759Z,19.90
2018-02-16T10:22:27.277Z,19.47
2018-02-16T10:24:55.794Z,17.20
2018-02-16T10:27:24.286Z,18.73
2018-02-16T10:29:52.820Z,20.00
2018-02-16T10:32:21.293Z,18.97
2018-02-16T10:34:49.787Z,17.93
2018-02-16T10:37:18.295Z,18.53
2018-02-16T10:39:46.784Z,18.83
2018-02-16T10:42:15.299Z,18.47
2018-02-16T10:44:43.794Z,17.07
2018-02-16T10:47:12.273Z,17.83
2018-02-16T10:49:40.810Z,18.73
2018-02-16T10:52:09.322Z,18.07
2018-02-16T10:54:37.790Z,18.40
2018-02-16T10:57:06.306Z,18.63
2018-02-16T10:59:34.801Z,17.13
2018-02-16T11:02:08.659Z,18.73
2018-02-16T11:04:42.789Z,18.30
2018-02-16T11:07:16.786Z,17.87
2018-02-16T11:09:45.274Z,17.63
2018-02-16T11:12:13.806Z,17.07
2018-02-16T11:14:42.310Z,18.33
2018-02-16T11:17:10.797Z,18.10
2018-02-16T11:19:39.306Z,18.10
2018-02-16T11:22:07.778Z,18.33
2018-02-16T11:24:36.290Z,20.37
2018-02-16T11:27:04.778Z,17.87
2018-02-16T11:29:33.306Z,19.00
2018-02-16T11:32:01.795Z,18.63
2018-02-16T11:34:30.278Z,17.97
2018-02-16T11:36:58.758Z,18.67
2018-02-16T11:39:27.285Z,18.93
2018-02-16T11:41:55.747Z,18.70
2018-02-16T11:44:24.254Z,19.77
2018-02-16T11:46:52.734Z,18.70
2018-02-16T11:49:21.253Z,18.17
2018-02-16T11:51:49.797Z,17.27
2018-02-16T11:54:18.268Z,16.77
2018-02-16T11:56:46.778Z,15.53
2018-02-16T11:59:15.361Z,16.43
2018-02-16T12:01:43.860Z,16.50
2018-02-16T12:04:12.375Z,16.80
2018-02-16T12:06:40.893Z,16.47
2018-02-16T12:09:09.367Z,16.50
2018-02-16T12:11:37.852Z,17.50
2018-02-16T12:14:06.378Z,17.87
2018-02-16T12:16:34.853Z,19.33
2018-02-16T12:19:03.343Z,18.53
2018-02-16T12:21:31.868Z,18.47
2018-02-16T12:24:00.373Z,18.33
2018-02-16T12:26:28.893Z,18.70
2018-02-16T12:28:57.361Z,24.37
2018-02-16T12:31:25.898Z,18.40
2018-02-16T12:33:54.398Z,18.93
2018-02-16T12:36:23.169Z,20.33
2018-02-16T12:38:51.678Z,18.77
2018-02-16T12:41:20.194Z,19.70
2018-02-16T12:43:48.670Z,19.83
2018-02-16T12:46:17.149Z,20.47
2018-02-16T12:48:45.675Z,20.53
2018-02-16T12:51:14.150Z,20.23
2018-02-16T12:53:42.658Z,20.23
2018-02-16T12:56:11.142Z,20.27
2018-02-16T12:58:39.649Z,20.80
2018-02-16T13:01:08.165Z,20.87
2018-02-16T13:03:36.673Z,21.97
2018-02-16T13:06:05.189Z,20.50
2018-02-16T13:08:33.713Z,21.47
2018-02-16T13:11:02.186Z,22.17
2018-02-16T13:13:30.699Z,21.83
2018-02-16T13:15:59.278Z,21.67
2018-02-16T13:18:27.811Z,20.53
2018-02-16T13:20:56.288Z,19.80
2018-02-16T13:23:25.654Z,22.20
2018-02-16T13:25:54.235Z,21.63
2018-02-16T13:28:22.729Z,22.00
2018-02-16T13:30:51.304Z,19.20
2018-02-16T13:33:19.813Z,19.30
2018-02-16T13:35:48.283Z,20.13
2018-02-16T13:38:16.817Z,20.40
2018-02-16T13:40:45.384Z,19.53
2018-02-16T13:43:13.859Z,20.23
2018-02-16T13:45:42.369Z,20.73
2018-02-16T13:48:10.943Z,19.03
2018-02-16T13:50:39.469Z,19.83
2018-02-16T13:53:07.985Z,19.93
2018-02-16T13:55:36.574Z,19.97
2018-02-16T13:58:05.091Z,20.57
2018-02-16T14:00:33.604Z,19.93
2018-02-16T14:03:02.154Z,20.23
2018-02-16T14:05:30.674Z,20.17
2018-02-16T14:07:59.226Z,19.67
2018-02-16T14:10:27.702Z,18.97
2018-02-16T14:12:56.231Z,20.07
2018-02-16T14:15:24.734Z,19.53
2018-02-16T14:17:53.214Z,19.53
2018-02-16T14:20:21.730Z,19.00
2018-02-16T14:22:50.215Z,19.93
2018-02-16T14:25:18.726Z,20.60
2018-02-16T14:27:47.209Z,21.20
2018-02-16T14:30:15.717Z,20.87
2018-02-16T14:32:44.216Z,20.53
2018-02-16T14:35:12.737Z,21.07
2018-02-16T14:37:41.262Z,19.47
2018-02-16T14:40:09.735Z,20.57
2018-02-16T14:42:38.206Z,19.20
2018-02-16T14:45:06.751Z,19.77
2018-02-16T14:47:35.231Z,18.83
2018-02-16T14:50:03.787Z,19.03
2018-02-16T14:52:32.262Z,19.07
2018-02-16T14:55:00.770Z,19.37
2018-02-16T14:57:29.310Z,18.23
2018-02-16T14:59:57.832Z,19.50
2018-02-16T15:02:26.317Z,18.83
2018-02-16T15:04:54.838Z,19.23
2018-02-16T15:07:23.361Z,19.97
2018-02-16T15:09:51.844Z,19.90
2018-02-16T15:12:20.318Z,21.50
2018-02-16T15:14:48.853Z,19.80
2018-02-16T15:17:17.371Z,19.47
2018-02-16T15:19:45.930Z,18.87
2018-02-16T15:22:14.465Z,19.90
2018-02-16T15:24:42.956Z,18.80
2018-02-16T15:27:11.785Z,18.17
2018-02-16T15:29:40.708Z,17.80
2018-02-16T15:32:09.780Z,19.50
2018-02-16T15:34:39.916Z,17.73
2018-02-16T15:37:08.955Z,17.90
2018-02-16T15:39:40.218Z,19.33
2018-02-16T15:42:09.222Z,20.37
2018-02-16T15:44:39.369Z,20.17
2018-02-16T15:47:08.617Z,20.47
2018-02-16T15:49:38.271Z,20.97
2018-02-16T15:52:06.997Z,21.63
2018-02-16T15:54:35.777Z,21.67
2018-02-16T15:57:04.601Z,21.57
2018-02-16T15:59:33.332Z,20.57
2018-02-16T16:02:01.819Z,22.43
2018-02-16T16:04:30.381Z,23.73
2018-02-16T16:06:58.855Z,21.93
2018-02-16T16:09:27.380Z,24.80
2018-02-16T16:11:55.848Z,19.90
2018-02-16T16:14:24.412Z,22.07
2018-02-16T16:16:52.886Z,19.70
2018-02-16T16:19:21.404Z,20.17
2018-02-16T16:21:49.878Z,19.27
2018-02-16T16:24:18.377Z,19.67
2018-02-16T16:26:46.874Z,21.57
2018-02-16T16:29:15.330Z,22.20
2018-02-16T16:31:44.570Z,21.57
2018-02-16T16:34:13.037Z,21.53
2018-02-16T16:36:41.542Z,20.83
2018-02-16T16:39:10.020Z,22.30
2018-02-16T16:41:38.546Z,27.30
2018-02-16T16:44:07.017Z,24.33
2018-02-16T16:46:35.522Z,24.87
2018-02-16T16:49:04.062Z,23.53
2018-02-16T16:51:32.565Z,24.10
2018-02-16T16:54:01.065Z,22.67
2018-02-16T16:56:29.534Z,21.80
2018-02-16T16:58:58.029Z,24.97
2018-02-16T17:01:26.499Z,24.03
2018-02-16T17:03:55.018Z,22.83
2018-02-16T17:06:23.482Z,22.43
2018-02-16T17:08:52.010Z,26.00
2018-02-16T17:11:20.536Z,59.70
2018-02-16T17:13:48.998Z,48.93
2018-02-16T17:16:17.469Z,37.03
2018-02-16T17:18:45.962Z,36.03
2018-02-16T17:21:14.418Z,32.67
2018-02-16T17:23:42.910Z,31.97
2018-02-16T17:26:11.380Z,28.07
2018-02-16T17:28:39.882Z,24.90
2018-02-16T17:31:08.388Z,26.43
2018-02-16T17:33:36.866Z,25.27
2018-02-16T17:36:05.386Z,29.40
2018-02-16T17:38:33.855Z,30.33
2018-02-16T17:41:02.334Z,31.33
2018-02-16T17:43:30.774Z,30.53
2018-02-16T17:45:59.272Z,31.57
2018-02-16T17:48:27.734Z,31.00
2018-02-16T17:50:56.197Z,31.77
2018-02-16T17:53:24.709Z,31.80
2018-02-16T17:55:53.170Z,32.10
2018-02-16T17:58:21.698Z,31.77
2018-02-16T18:00:50.166Z,31.37
2018-02-16T18:03:18.633Z,32.03
2018-02-16T18:05:47.135Z,32.13
2018-02-16T18:08:15.597Z,35.60
2018-02-16T18:10:44.097Z,37.13
2018-02-16T18:13:12.562Z,37.63
2018-02-16T18:15:41.066Z,35.63
2018-02-16T18:18:09.518Z,36.07
2018-02-16T18:20:38.074Z,36.97
2018-02-16T18:23:06.600Z,35.80
2018-02-16T18:25:35.075Z,37.40
2018-02-16T18:28:03.538Z,36.03
2018-02-16T18:30:32.042Z,37.37
2018-02-16T18:33:00.537Z,38.03
2018-02-16T18:35:29.001Z,35.80
2018-02-16T18:37:58.321Z,36.27
2018-02-16T18:40:26.802Z,37.30
2018-02-16T18:42:55.316Z,40.03
2018-02-16T18:45:23.837Z,39.27
2018-02-16T18:47:52.305Z,45.93
2018-02-16T18:50:20.805Z,48.73
2018-02-16T18:52:49.310Z,49.53
2018-02-16T18:55:17.790Z,47.13
2018-02-16T18:57:46.257Z,46.90
2018-02-16T19:00:14.766Z,46.10
2018-02-16T19:02:43.229Z,47.03
2018-02-16T19:05:11.718Z,48.00
2018-02-16T19:07:40.237Z,48.80
2018-02-16T19:10:08.702Z,46.23
2018-02-16T19:12:37.234Z,45.70
2018-02-16T19:15:05.706Z,45.07
2018-02-16T19:17:34.165Z,47.73
2018-02-16T19:20:02.666Z,46.53
2018-02-16T19:22:31.137Z,45.20
2018-02-16T19:24:59.655Z,44.40
2018-02-16T19:27:28.141Z,44.43
2018-02-16T19:29:56.657Z,45.43
2018-02-16T19:32:25.117Z,44.20
2018-02-16T19:34:53.662Z,40.23
2018-02-16T19:37:22.136Z,43.00
2018-02-16T19:39:50.637Z,40.40
2018-02-16T19:42:19.133Z,38.53
2018-02-16T19:44:47.650Z,39.13
2018-02-16T19:47:16.117Z,39.30
2018-02-16T19:49:44.573Z,38.27
2018-02-16T19:52:13.066Z,37.87
2018-02-16T19:54:41.515Z,36.03
2018-02-16T19:57:09.979Z,35.57
2018-02-16T19:59:38.477Z,37.07
2018-02-16T20:02:06.941Z,36.23
2018-02-16T20:04:35.450Z,36.40
2018-02-16T20:07:03.910Z,39.57
2018-02-16T20:09:32.421Z,39.83
2018-02-16T20:12:00.885Z,40.90
2018-02-16T20:14:29.345Z,43.30
2018-02-16T20:16:57.856Z,44.63
2018-02-16T20:19:26.317Z,44.80
2018-02-16T20:21:54.790Z,48.83
2018-02-16T20:24:23.254Z,45.63
2018-02-16T20:26:51.749Z,56.20
2018-02-16T20:29:20.257Z,61.97
2018-02-16T20:31:48.739Z,52.47
2018-02-16T20:34:17.244Z,58.37
2018-02-16T20:36:45.723Z,65.43
2018-02-16T20:39:14.229Z,67.03
2018-02-16T20:41:42.714Z,73.73
2018-02-16T20:44:11.229Z,82.30
2018-02-16T20:46:39.778Z,86.40
2018-02-16T20:49:08.231Z,73.67
2018-02-16T20:51:36.733Z,70.40
2018-02-16T20:54:05.258Z,73.60
2018-02-16T20:56:33.769Z,69.57
2018-02-16T20:59:02.252Z,67.27
2018-02-16T21:01:30.753Z,63.93
2018-02-16T21:03:59.262Z,68.03
2018-02-16T21:06:27.745Z,64.80
2018-02-16T21:08:56.225Z,62.80
2018-02-16T21:11:24.730Z,65.57
2018-02-16T21:13:53.225Z,64.07
2018-02-16T21:16:21.728Z,61.30
2018-02-16T21:18:50.228Z,64.30
2018-02-16T21:21:18.737Z,65.73
2018-02-16T21:23:47.206Z,62.27
2018-02-16T21:26:15.748Z,61.60
2018-02-16T21:28:44.213Z,59.37
2018-02-16T21:31:12.714Z,55.77
2018-02-16T21:33:41.214Z,53.57
2018-02-16T21:36:09.737Z,52.63
2018-02-16T21:38:38.237Z,50.83
2018-02-16T21:41:06.715Z,50.40
2018-02-16T21:43:35.184Z,51.90
2018-02-16T21:46:03.693Z,50.77
2018-02-16T21:48:32.201Z,50.80
2018-02-16T21:51:00.683Z,55.93
2018-02-16T21:53:29.234Z,54.17
2018-02-16T21:55:57.712Z,53.37
2018-02-16T21:58:26.186Z,55.60
2018-02-16T22:00:54.695Z,53.93
2018-02-16T22:03:23.158Z,64.80
2018-02-16T22:05:51.669Z,71.83
2018-02-16T22:08:20.126Z,70.10
2018-02-16T22:10:48.625Z,70.70
2018-02-16T22:13:17.173Z,66.43
2018-02-16T22:15:45.649Z,66.00
2018-02-16T22:18:14.166Z,66.27
2018-02-16T22:20:42.662Z,64.97
2018-02-16T22:23:11.154Z,61.30
2018-02-16T22:25:39.653Z,59.27
2018-02-16T22:28:08.110Z,60.43
2018-02-16T22:30:36.581Z,61.47
2018-02-16T22:33:05.070Z,59.00
2018-02-16T22:35:33.521Z,60.50
2018-02-16T22:38:01.982Z,55.00
2018-02-16T22:40:30.463Z,56.00
2018-02-16T22:42:58.922Z,56.50
2018-02-16T22:45:27.420Z,54.70
2018-02-16T22:47:55.903Z,56.07
2018-02-16T22:50:24.361Z,54.33
2018-02-16T22:52:52.907Z,53.20
2018-02-16T22:55:21.374Z,54.07
2018-02-16T22:57:49.846Z,53.07
2018-02-16T23:00:18.393Z,52.50
2018-02-16T23:02:46.898Z,50.97
2018-02-16T23:05:15.418Z,51.20
2018-02-16T23:07:43.937Z,49.87
2018-02-16T23:10:12.406Z,46.67
2018-02-16T23:12:40.886Z,48.10
2018-02-16T23:15:09.388Z,47.13
2018-02-16T23:17:37.850Z,46.53
2018-02-16T23:20:06.370Z,47.17
2018-02-16T23:22:34.832Z,46.03
2018-02-16T23:25:03.290Z,47.10
2018-02-16T23:27:31.787Z,43.80
2018-02-16T23:30:00.337Z,42.50
2018-02-16T23:32:28.809Z,44.67
2018-02-16T23:34:57.310Z,43.23
2018-02-16T23:37:25.891Z,43.40
2018-02-16T23:39:54.353Z,44.50
2018-02-16T23:42:22.846Z,42.20
2018-02-16T23:44:51.338Z,42.73
2018-02-16T23:47:19.844Z,46.83
2018-02-16T23:49:48.346Z,46.57
2018-02-16T23:52:16.810Z,44.70
2018-02-16T23:54:45.318Z,42.90
2018-02-16T23:57:13.806Z,45.87
2018-02-16T23:59:42.307Z,44.17
